Maersk Danang — A8PS5 — position and weather

sailwx.info

Track history (hours):
 
Tides and Currents Weather Stations Pressure Air Temp Water Temp Dewpoint Dewpoint Depression Visibility Wind Speed Wind Dir Waves Ship Positions

Maersk Danang

Last reported at 2014-Sep-14 02:33 UTC. Time now 2014-Sep-20 06:01 UTC.
Position N 26°41' W 079°25'.

Length 294 m; draft 10.7 m.

Type: Ship (hazmat cat A). MMSI: 636091595.

Date/timePositionNaut miles runAvg speedWind from/ knotsBaromVisibWave heightAir tempDewpointWater temp
2014-Sep-14 02:33N 26°41' W 079°25'2318.3
2014-Sep-14 01:17N 26°18' W 079°30'4812.7
2014-Sep-13 21:30N 25°46' W 080°09'0 0.0
2014-Sep-13 20:26N 25°46' W 080°09'0 0.0
2014-Sep-13 17:19N 25°46' W 080°09'0 0.0
2014-Sep-13 13:26N 25°46' W 080°09'0 0.0
2014-Sep-13 12:32N 25°46' W 080°09'0 0.0
2014-Sep-13 11:19N 25°46' W 080°09'5 6.9
2014-Sep-13 10:33N 25°46' W 080°03'6 5.8
2014-Sep-13 09:28N 25°41' W 080°00'  
2014-Sep-10 19:33N 29°21' W 094°44'1313.1
2014-Sep-10 18:33N 29°31' W 094°53'1111.3
2014-Sep-10 17:33N 29°41' W 094°59'1 1.0
2014-Sep-10 16:33N 29°41' W 095°00'0 0.0
2014-Sep-10 15:32N 29°41' W 095°00'0 0.0
2014-Sep-10 14:32N 29°41' W 095°00'0 0.0
2014-Sep-10 13:31N 29°41' W 095°00'0 0.0
2014-Sep-10 12:31N 29°41' W 095°00'0 0.0
2014-Sep-10 11:34N 29°41' W 095°00'0 0.0
2014-Sep-10 10:33N 29°41' W 095°00'0 0.0
2014-Sep-10 09:33N 29°41' W 095°00'0 0.0
2014-Sep-10 08:32N 29°41' W 095°00'0 0.0
2014-Sep-10 07:32N 29°41' W 095°00'0 0.0
2014-Sep-10 06:31N 29°41' W 095°00'0 0.0
2014-Sep-10 05:31N 29°41' W 095°00'0 0.0
2014-Sep-10 04:33N 29°41' W 095°00'0 0.0
2014-Sep-10 03:33N 29°41' W 095°00'0 0.0
2014-Sep-10 02:33N 29°41' W 095°00'0 0.0
2014-Sep-10 01:32N 29°41' W 095°00'0 0.0
2014-Sep-10 00:32N 29°41' W 095°00'0 0.0
2014-Sep-09 23:31N 29°41' W 095°00'0 0.0
2014-Sep-09 22:31N 29°41' W 095°00'0 0.0
2014-Sep-09 21:33N 29°41' W 095°00'0 0.0
2014-Sep-09 20:33N 29°41' W 095°00'0 0.0
2014-Sep-09 19:33N 29°41' W 095°00'0 0.0
2014-Sep-09 18:32N 29°41' W 095°00'0 0.0
2014-Sep-09 17:32N 29°41' W 095°00'0 0.0
2014-Sep-09 16:19N 29°41' W 095°00'0 0.0
2014-Sep-09 15:07N 29°41' W 095°00'0 0.0
2014-Sep-09 14:33N 29°41' W 095°00'0 0.0
2014-Sep-09 13:33N 29°41' W 095°00'0 0.0
2014-Sep-09 12:24N 29°41' W 095°00'0 0.0
2014-Sep-09 11:29N 29°41' W 095°00'0 0.1
2014-Sep-09 10:33N 29°41' W 095°00'7 6.6
2014-Sep-09 09:33N 29°35' W 094°56'1313.2
2014-Sep-09 08:33N 29°24' W 094°49'81915.7
2014-Sep-07 04:33N 25°41' W 080°01'1414.2
2014-Sep-07 03:33N 25°55' W 079°59'1414.4
2014-Sep-07 02:33N 26°09' W 079°58'1414.2
2014-Sep-07 01:33N 26°24' W 079°56'1414.4
2014-Sep-07 00:33N 26°38' W 079°55'1514.7
2014-Sep-06 23:33N 26°53' W 079°55'1515.3
2014-Sep-06 22:34N 27°08' W 079°57'30315.0
2014-Sep-06 02:23N 32°05' W 080°59'6 7.3
2014-Sep-06 01:33N 32°06' W 081°07'3 2.4
2014-Sep-06 00:31N 32°08' W 081°08'0 0.0
2014-Sep-05 23:09N 32°08' W 081°08'0 0.0
2014-Sep-05 22:32N 32°08' W 081°08'0 0.0
2014-Sep-05 21:23N 32°08' W 081°08'0 0.0
2014-Sep-05 20:07N 32°08' W 081°08'0 0.0
2014-Sep-05 19:28N 32°08' W 081°08'0 0.0
2014-Sep-05 13:32N 32°08' W 081°08'0 0.0
2014-Sep-05 10:33N 32°08' W 081°08'4 4.5
2014-Sep-05 09:33N 32°05' W 081°05'  
Track history (hours):
 
Tides and Currents Weather Stations Pressure Air Temp Water Temp Dewpoint Dewpoint Depression Visibility Wind Speed Wind Dir Waves Ship Positions

Maersk Danang

Last reported at 2014-Sep-14 02:33 UTC. Time now 2014-Sep-20 06:01 UTC.
Position N 26°41' W 079°25'.

Length 294 m; draft 10.7 m.

Type: Ship (hazmat cat A). MMSI: 636091595.

Date/timePositionNaut miles runAvg speedWind from/ knotsBaromVisibWave heightAir tempDewpointWater temp
2014-Sep-14 02:33N 26°41' W 079°25'2318.3
2014-Sep-14 01:17N 26°18' W 079°30'4812.7
2014-Sep-13 21:30N 25°46' W 080°09'0 0.0
2014-Sep-13 20:26N 25°46' W 080°09'0 0.0
2014-Sep-13 17:19N 25°46' W 080°09'0 0.0
2014-Sep-13 13:26N 25°46' W 080°09'0 0.0
2014-Sep-13 12:32N 25°46' W 080°09'0 0.0
2014-Sep-13 11:19N 25°46' W 080°09'5 6.9
2014-Sep-13 10:33N 25°46' W 080°03'6 5.8
2014-Sep-13 09:28N 25°41' W 080°00'  
2014-Sep-10 19:33N 29°21' W 094°44'1313.1
2014-Sep-10 18:33N 29°31' W 094°53'1111.3
2014-Sep-10 17:33N 29°41' W 094°59'1 1.0
2014-Sep-10 16:33N 29°41' W 095°00'0 0.0
2014-Sep-10 15:32N 29°41' W 095°00'0 0.0
2014-Sep-10 14:32N 29°41' W 095°00'0 0.0
2014-Sep-10 13:31N 29°41' W 095°00'0 0.0
2014-Sep-10 12:31N 29°41' W 095°00'0 0.0
2014-Sep-10 11:34N 29°41' W 095°00'0 0.0
2014-Sep-10 10:33N 29°41' W 095°00'0 0.0
2014-Sep-10 09:33N 29°41' W 095°00'0 0.0
2014-Sep-10 08:32N 29°41' W 095°00'0 0.0
2014-Sep-10 07:32N 29°41' W 095°00'0 0.0
2014-Sep-10 06:31N 29°41' W 095°00'0 0.0
2014-Sep-10 05:31N 29°41' W 095°00'0 0.0
2014-Sep-10 04:33N 29°41' W 095°00'0 0.0
2014-Sep-10 03:33N 29°41' W 095°00'0 0.0
2014-Sep-10 02:33N 29°41' W 095°00'0 0.0
2014-Sep-10 01:32N 29°41' W 095°00'0 0.0
2014-Sep-10 00:32N 29°41' W 095°00'0 0.0
2014-Sep-09 23:31N 29°41' W 095°00'0 0.0
2014-Sep-09 22:31N 29°41' W 095°00'0 0.0
2014-Sep-09 21:33N 29°41' W 095°00'0 0.0
2014-Sep-09 20:33N 29°41' W 095°00'0 0.0
2014-Sep-09 19:33N 29°41' W 095°00'0 0.0
2014-Sep-09 18:32N 29°41' W 095°00'0 0.0
2014-Sep-09 17:32N 29°41' W 095°00'0 0.0
2014-Sep-09 16:19N 29°41' W 095°00'0 0.0
2014-Sep-09 15:07N 29°41' W 095°00'0 0.0
2014-Sep-09 14:33N 29°41' W 095°00'0 0.0
2014-Sep-09 13:33N 29°41' W 095°00'0 0.0
2014-Sep-09 12:24N 29°41' W 095°00'0 0.0
2014-Sep-09 11:29N 29°41' W 095°00'0 0.1
2014-Sep-09 10:33N 29°41' W 095°00'7 6.6
2014-Sep-09 09:33N 29°35' W 094°56'1313.2
2014-Sep-09 08:33N 29°24' W 094°49'81915.7
2014-Sep-07 04:33N 25°41' W 080°01'1414.2
2014-Sep-07 03:33N 25°55' W 079°59'1414.4
2014-Sep-07 02:33N 26°09' W 079°58'1414.2
2014-Sep-07 01:33N 26°24' W 079°56'1414.4
2014-Sep-07 00:33N 26°38' W 079°55'1514.7
2014-Sep-06 23:33N 26°53' W 079°55'1515.3
2014-Sep-06 22:34N 27°08' W 079°57'30315.0
2014-Sep-06 02:23N 32°05' W 080°59'6 7.3
2014-Sep-06 01:33N 32°06' W 081°07'3 2.4
2014-Sep-06 00:31N 32°08' W 081°08'0 0.0
2014-Sep-05 23:09N 32°08' W 081°08'0 0.0
2014-Sep-05 22:32N 32°08' W 081°08'0 0.0
2014-Sep-05 21:23N 32°08' W 081°08'0 0.0
2014-Sep-05 20:07N 32°08' W 081°08'0 0.0
2014-Sep-05 19:28N 32°08' W 081°08'0 0.0
2014-Sep-05 13:32N 32°08' W 081°08'0 0.0
2014-Sep-05 10:33N 32°08' W 081°08'4 4.5
2014-Sep-05 09:33N 32°05' W 081°05'  

Dump ship's entire track history